createdAt,value
2022-08-17T00:00:05.818Z,97222.94
2022-08-17T00:03:04.127Z,97210.69
2022-08-17T00:05:47.976Z,97212.28
2022-08-17T00:08:18.417Z,97206.16
2022-08-17T00:10:46.387Z,97207.75
2022-08-17T00:13:20.387Z,97205.16
2022-08-17T00:15:47.546Z,97193.78
2022-08-17T00:19:01.685Z,97194.91
2022-08-17T00:21:05.126Z,97194.31
2022-08-17T00:23:38.301Z,97194.31
2022-08-17T00:26:05.239Z,97194.84
2022-08-17T00:28:33.376Z,97183.63
2022-08-17T00:31:01.093Z,97181.38
2022-08-17T00:33:30.714Z,97180.78
2022-08-17T00:35:59.136Z,97182.31
2022-08-17T00:38:27.457Z,97173.53
2022-08-17T00:41:00.544Z,97171.56
2022-08-17T00:43:37.973Z,97179.34
2022-08-17T00:46:17.906Z,97171.41
2022-08-17T00:48:44.979Z,97180.25
2022-08-17T00:51:49.532Z,97167.75
2022-08-17T00:54:30.096Z,97166.47
2022-08-17T00:57:05.183Z,97167.59
2022-08-17T00:59:37.567Z,97169.38
2022-08-17T01:02:06.451Z,97165.00
2022-08-17T01:04:33.942Z,97160.66
2022-08-17T01:07:02.799Z,97174.00
2022-08-17T01:09:31.519Z,97171.75
2022-08-17T01:11:58.697Z,97161.69
2022-08-17T01:14:26.568Z,97162.81
2022-08-17T01:16:55.331Z,97168.38
2022-08-17T01:19:27.376Z,97169.84
2022-08-17T01:22:26.983Z,97175.59
2022-08-17T01:24:59.339Z,97166.97
2022-08-17T01:27:27.679Z,97163.44
2022-08-17T01:30:02.174Z,97170.00
2022-08-17T01:32:30.557Z,97165.66
2022-08-17T01:35:00.875Z,97161.84
2022-08-17T01:37:37.538Z,97161.53
2022-08-17T01:40:14.219Z,97160.38
2022-08-17T01:42:54.811Z,97161.03
2022-08-17T01:45:26.005Z,97161.38
2022-08-17T01:47:54.680Z,97157.81
2022-08-17T01:50:28.853Z,97157.03
2022-08-17T01:53:12.159Z,97153.81
2022-08-17T01:55:45.941Z,97157.34
2022-08-17T01:58:13.764Z,97160.53
2022-08-17T02:00:59.703Z,97162.16
2022-08-17T02:03:29.293Z,97157.19
2022-08-17T02:05:57.155Z,97156.84
2022-08-17T02:08:38.653Z,97149.16
2022-08-17T02:11:14.718Z,97148.97
2022-08-17T02:13:42.744Z,97145.09
2022-08-17T02:16:09.773Z,97153.88
2022-08-17T02:18:36.903Z,97150.03
2022-08-17T02:21:05.047Z,97151.94
2022-08-17T02:23:35.159Z,97155.22
2022-08-17T02:26:02.412Z,97152.34
2022-08-17T02:28:29.982Z,97146.25
2022-08-17T02:31:03.247Z,97163.09
2022-08-17T02:33:43.114Z,97160.38
2022-08-17T02:36:13.112Z,97156.19
2022-08-17T02:38:41.288Z,97161.25
2022-08-17T02:41:09.175Z,97161.41
2022-08-17T02:43:36.159Z,97158.94
2022-08-17T02:46:04.042Z,97166.66
2022-08-17T02:48:32.074Z,97162.25
2022-08-17T02:51:00.712Z,97174.16
2022-08-17T02:53:31.857Z,97170.31
2022-08-17T02:56:03.886Z,97170.94
2022-08-17T02:58:35.742Z,97168.34
2022-08-17T03:01:08.243Z,97171.56
2022-08-17T03:03:36.834Z,97173.06
2022-08-17T03:06:04.990Z,97178.53
2022-08-17T03:08:32.263Z,97175.81
2022-08-17T03:10:59.843Z,97174.69
2022-08-17T03:13:27.330Z,97173.91
2022-08-17T03:15:54.369Z,97168.66
2022-08-17T03:18:24.793Z,97174.28
2022-08-17T03:20:54.619Z,97182.94
2022-08-17T03:23:24.173Z,97179.94
2022-08-17T03:25:53.051Z,97178.00
2022-08-17T03:28:21.821Z,97174.59
2022-08-17T03:30:49.157Z,97184.53
2022-08-17T03:33:17.085Z,97175.06
2022-08-17T03:35:44.465Z,97183.41
2022-08-17T03:38:15.257Z,97186.50
2022-08-17T03:40:56.514Z,97194.13
2022-08-17T03:43:29.684Z,97187.59
2022-08-17T03:46:28.401Z,97197.44
2022-08-17T03:49:19.483Z,97192.66
2022-08-17T03:52:04.818Z,97198.44
2022-08-17T03:54:50.381Z,97199.75
2022-08-17T03:57:17.326Z,97193.94
2022-08-17T03:59:45.078Z,97191.59
2022-08-17T04:02:33.924Z,97201.72
2022-08-17T04:05:01.068Z,97196.28
2022-08-17T04:07:30.140Z,97194.56
2022-08-17T04:09:58.253Z,97195.09
2022-08-17T04:12:30.781Z,97206.31
2022-08-17T04:14:58.529Z,97204.59
2022-08-17T04:17:27.799Z,97216.28
2022-08-17T04:19:56.070Z,97216.69
2022-08-17T04:22:32.709Z,97224.00
2022-08-17T04:25:16.209Z,97230.78
2022-08-17T04:27:43.261Z,97216.25
2022-08-17T04:30:10.899Z,97222.06
2022-08-17T04:33:04.631Z,97228.19
2022-08-17T04:35:44.800Z,97222.31
2022-08-17T04:38:14.912Z,97213.91
2022-08-17T04:41:01.286Z,97222.13
2022-08-17T04:43:29.789Z,97221.25
2022-08-17T04:46:04.989Z,97218.88
2022-08-17T04:48:50.144Z,97227.38
2022-08-17T04:51:24.917Z,97229.53
2022-08-17T04:53:55.521Z,97227.78
2022-08-17T04:56:26.015Z,97235.16
2022-08-17T04:58:56.169Z,97234.06
2022-08-17T05:01:26.295Z,97222.22
2022-08-17T05:03:55.082Z,97226.44
2022-08-17T05:06:23.020Z,97237.22
2022-08-17T05:08:49.993Z,97240.28
2022-08-17T05:11:17.163Z,97245.28
2022-08-17T05:13:44.891Z,97243.34
2022-08-17T05:16:12.287Z,97236.56
2022-08-17T05:18:39.677Z,97242.03
2022-08-17T05:21:07.614Z,97248.78
2022-08-17T05:23:41.799Z,97252.31
2022-08-17T05:26:25.819Z,97252.66
2022-08-17T05:29:00.481Z,97259.22
2022-08-17T05:31:30.534Z,97260.34
2022-08-17T05:33:58.142Z,97263.56
2022-08-17T05:36:42.603Z,97261.34
2022-08-17T05:39:16.369Z,97257.34
2022-08-17T05:41:47.069Z,97257.66
2022-08-17T05:44:14.221Z,97263.84
2022-08-17T05:46:47.716Z,97261.00
2022-08-17T05:49:18.198Z,97261.94
2022-08-17T05:52:37.718Z,97259.09
2022-08-17T05:55:04.700Z,97260.03
2022-08-17T05:57:56.307Z,97258.09
2022-08-17T06:01:01.842Z,97263.31
2022-08-17T06:04:01.110Z,97255.44
2022-08-17T06:06:35.917Z,97268.75
2022-08-17T06:09:11.978Z,97259.53
2022-08-17T06:11:47.681Z,97264.53
2022-08-17T06:14:29.404Z,97262.00
2022-08-17T06:17:04.588Z,97259.81
2022-08-17T06:19:54.623Z,97271.16
2022-08-17T06:22:26.416Z,97265.47
2022-08-17T06:25:12.921Z,97261.16
2022-08-17T06:27:56.043Z,97260.84
2022-08-17T06:30:28.435Z,97258.66
2022-08-17T06:33:08.026Z,97260.59
2022-08-17T06:35:44.619Z,97256.03
2022-08-17T06:38:38.339Z,97260.03
2022-08-17T06:41:18.543Z,97259.72
2022-08-17T06:44:07.205Z,97261.88
2022-08-17T06:46:41.633Z,97268.50
2022-08-17T06:49:14.457Z,97266.53
2022-08-17T06:51:48.792Z,97272.09
2022-08-17T06:54:27.355Z,97266.41
2022-08-17T06:57:12.664Z,97262.53
2022-08-17T07:00:01.432Z,97259.38
2022-08-17T07:02:52.537Z,97265.06
2022-08-17T07:05:25.718Z,97265.19
2022-08-17T07:08:35.347Z,97271.09
2022-08-17T07:11:13.191Z,97271.09
2022-08-17T07:14:16.945Z,97260.66
2022-08-17T07:16:49.014Z,97269.19
2022-08-17T07:19:18.804Z,97273.25
2022-08-17T07:22:23.720Z,97272.44
2022-08-17T07:24:58.544Z,97277.38
2022-08-17T07:27:31.442Z,97279.09
2022-08-17T07:30:10.280Z,97278.16
2022-08-17T07:32:37.882Z,97271.75
2022-08-17T07:35:11.215Z,97278.63
2022-08-17T07:37:46.727Z,97280.81
2022-08-17T07:40:21.585Z,97278.88
2022-08-17T07:43:18.811Z,97273.16
2022-08-17T07:46:35.697Z,97284.47
2022-08-17T07:49:08.648Z,97278.56
2022-08-17T07:51:45.667Z,97278.75
2022-08-17T07:54:15.237Z,97266.13
2022-08-17T07:57:29.918Z,97268.75
2022-08-17T07:59:59.675Z,97269.63
2022-08-17T08:02:38.770Z,97266.56
2022-08-17T08:05:13.024Z,97267.16
2022-08-17T08:07:54.383Z,97275.06
2022-08-17T08:10:44.999Z,97275.66
2022-08-17T08:13:28.861Z,97273.28
2022-08-17T08:16:12.602Z,97270.63
2022-08-17T08:18:55.041Z,97264.88
2022-08-17T08:21:47.501Z,97268.81
2022-08-17T08:24:42.313Z,97263.53
2022-08-17T08:27:18.775Z,97263.13
2022-08-17T08:30:21.804Z,97263.50
2022-08-17T08:33:00.428Z,97274.00
2022-08-17T08:35:33.095Z,97273.16
2022-08-17T08:38:34.571Z,97264.19
2022-08-17T08:41:22.730Z,97266.16
2022-08-17T08:44:17.007Z,97265.78
2022-08-17T08:47:00.841Z,97266.78
2022-08-17T08:49:59.067Z,97257.81
2022-08-17T08:52:38.154Z,97267.75
2022-08-17T08:55:25.291Z,97260.44
2022-08-17T08:57:55.084Z,97259.66
2022-08-17T09:00:25.134Z,97256.47
2022-08-17T09:03:20.245Z,97255.56
2022-08-17T09:05:48.454Z,97254.19
2022-08-17T09:08:43.896Z,97255.47
2022-08-17T09:11:28.539Z,97265.66
2022-08-17T09:14:21.198Z,97271.84
2022-08-17T09:17:05.024Z,97266.94
2022-08-17T09:19:41.459Z,97268.53
2022-08-17T09:22:52.831Z,97261.97
2022-08-17T09:25:27.135Z,97245.66
2022-08-17T09:28:00.581Z,97262.09
2022-08-17T09:30:36.405Z,97258.19
2022-08-17T09:33:08.423Z,97271.16
2022-08-17T09:35:44.438Z,97264.28
2022-08-17T09:38:41.672Z,97265.75
2022-08-17T09:41:26.900Z,97263.56
2022-08-17T10:16:36.385Z,97262.09
2022-08-17T10:19:21.208Z,97266.06
2022-08-17T10:22:32.528Z,97268.97
2022-08-17T10:25:22.331Z,97256.22
2022-08-17T10:27:57.762Z,97254.53
2022-08-17T10:30:28.383Z,97250.78
2022-08-17T10:33:05.360Z,97253.41
2022-08-17T10:35:35.129Z,97244.78
2022-08-17T10:38:12.751Z,97253.94
2022-08-17T10:41:03.751Z,97242.22
2022-08-17T10:44:39.320Z,97230.59
2022-08-17T10:46:55.556Z,97221.34
2022-08-17T10:49:32.758Z,97225.06
2022-08-17T10:52:22.035Z,97227.91
2022-08-17T10:54:58.106Z,97226.22
2022-08-17T10:57:34.337Z,97219.38
2022-08-17T11:00:05.176Z,97217.41
2022-08-17T11:02:50.081Z,97219.34
2022-08-17T11:05:54.391Z,97221.97
2022-08-17T11:08:34.266Z,97217.13
2022-08-17T11:11:20.293Z,97215.81
2022-08-17T11:13:59.341Z,97217.78
2022-08-17T11:17:12.964Z,97212.97
2022-08-17T11:20:34.856Z,97217.00
2022-08-17T11:23:25.607Z,97206.91
2022-08-17T11:25:59.071Z,97220.53
2022-08-17T11:28:34.672Z,97212.59
2022-08-17T11:31:07.455Z,97212.84
2022-08-17T11:33:36.928Z,97216.06
2022-08-17T11:36:16.779Z,97220.38
2022-08-17T11:39:22.469Z,97217.31
2022-08-17T11:42:20.148Z,97208.13
2022-08-17T11:45:03.333Z,97217.31
2022-08-17T11:48:34.098Z,97228.78
2022-08-17T11:51:30.352Z,97239.09
2022-08-17T11:54:31.118Z,97234.34
2022-08-17T11:56:51.985Z,97240.47
2022-08-17T11:59:34.098Z,97246.59
2022-08-17T12:02:02.483Z,97217.28
2022-08-17T12:04:32.859Z,97209.41
2022-08-17T12:07:30.326Z,97210.78
2022-08-17T12:09:58.847Z,97207.41
2022-08-17T12:12:36.008Z,97204.38
2022-08-17T12:15:12.114Z,97213.19
2022-08-17T12:17:42.626Z,97196.00
2022-08-17T12:20:32.232Z,97195.00
2022-08-17T12:23:16.397Z,97188.56
2022-08-17T12:25:47.560Z,97193.22
2022-08-17T12:28:28.067Z,97187.72
2022-08-17T12:30:59.846Z,97180.94
2022-08-17T12:33:28.898Z,97185.69
2022-08-17T12:36:03.387Z,97179.94
2022-08-17T12:38:36.332Z,97192.72
2022-08-17T12:41:25.422Z,97189.41
2022-08-17T12:44:02.961Z,97182.94
2022-08-17T12:46:33.762Z,97172.25
2022-08-17T12:49:29.699Z,97173.06
2022-08-17T12:52:29.721Z,97169.59
2022-08-17T12:55:07.091Z,97172.16
2022-08-17T12:57:44.172Z,97171.00
2022-08-17T13:00:22.262Z,97173.34
2022-08-17T13:02:52.778Z,97177.81
2022-08-17T13:05:27.798Z,97187.38
2022-08-17T13:07:56.680Z,97192.25
2022-08-17T13:10:32.416Z,97190.56
2022-08-17T13:13:05.510Z,97185.31
2022-08-17T13:15:44.512Z,97177.09
2022-08-17T13:18:36.001Z,97173.44
2022-08-17T13:21:03.102Z,97180.28
2022-08-17T13:23:32.221Z,97180.78
2022-08-17T13:26:06.743Z,97191.03
2022-08-17T13:28:37.589Z,97185.78
2022-08-17T13:31:28.048Z,97192.31
2022-08-17T13:34:13.585Z,97197.13
2022-08-17T13:36:43.727Z,97190.38
2022-08-17T13:39:23.110Z,97188.59
2022-08-17T13:41:55.537Z,97180.16
2022-08-17T13:44:38.724Z,97181.56
2022-08-17T13:47:27.144Z,97182.41
2022-08-17T13:49:55.457Z,97184.00
2022-08-17T13:52:52.290Z,97186.78
2022-08-17T13:55:22.659Z,97181.97
2022-08-17T13:58:06.452Z,97190.22
2022-08-17T14:00:36.489Z,97184.97
2022-08-17T14:03:04.864Z,97184.53
2022-08-17T14:05:32.518Z,97175.47
2022-08-17T14:08:06.858Z,97176.94
2022-08-17T14:10:36.592Z,97177.56
2022-08-17T14:13:04.204Z,97179.69
2022-08-17T14:15:54.644Z,97184.09
2022-08-17T14:18:55.438Z,97187.53
2022-08-17T14:21:08.506Z,97188.19
2022-08-17T14:23:36.883Z,97192.50
2022-08-17T14:26:04.342Z,97207.50
2022-08-17T14:28:31.945Z,97217.34
2022-08-17T14:31:00.854Z,97218.16
2022-08-17T14:33:30.680Z,97214.84
2022-08-17T14:35:57.760Z,97209.75
2022-08-17T14:38:25.328Z,97206.25
2022-08-17T14:40:52.996Z,97207.63
2022-08-17T14:43:21.089Z,97202.63
2022-08-17T14:45:48.064Z,97215.16
2022-08-17T14:48:15.232Z,97212.38
2022-08-17T14:50:43.116Z,97218.91
2022-08-17T14:53:12.205Z,97213.75
2022-08-17T14:55:42.401Z,97217.66
2022-08-17T14:58:09.487Z,97212.56
2022-08-17T15:00:37.602Z,97220.03
2022-08-17T15:03:05.412Z,97221.03
2022-08-17T15:05:35.209Z,97231.19
2022-08-17T15:08:03.815Z,97217.16
2022-08-17T15:10:31.316Z,97217.34
2022-08-17T15:12:59.462Z,97219.47
2022-08-17T15:15:26.847Z,97216.34
2022-08-17T15:17:53.859Z,97213.59
2022-08-17T15:20:24.814Z,97204.66
2022-08-17T15:22:55.775Z,97207.97
2022-08-17T15:25:26.741Z,97203.34
2022-08-17T15:27:55.664Z,97201.44
2022-08-17T15:30:23.283Z,97204.91
2022-08-17T15:32:55.252Z,97204.97
2022-08-17T15:35:29.473Z,97196.00
2022-08-17T15:38:08.335Z,97203.44
2022-08-17T15:40:41.754Z,97211.59
2022-08-17T15:43:27.388Z,97208.34
2022-08-17T15:46:10.146Z,97210.16
2022-08-17T15:48:43.043Z,97206.19
2022-08-17T15:51:25.138Z,97207.31
2022-08-17T15:53:55.042Z,97202.31
2022-08-17T15:56:22.545Z,97200.63
2022-08-17T15:58:49.976Z,97198.03
2022-08-17T16:02:21.516Z,97205.78
2022-08-17T16:04:30.496Z,97212.66
2022-08-17T16:06:53.826Z,97214.09
2022-08-17T16:09:20.737Z,97216.84
2022-08-17T16:11:52.138Z,97221.06
2022-08-17T16:14:23.188Z,97219.94
2022-08-17T16:16:51.790Z,97215.28
2022-08-17T16:19:18.687Z,97218.69
2022-08-17T16:21:45.627Z,97220.84
2022-08-17T16:24:13.237Z,97230.94
2022-08-17T16:26:41.274Z,97222.16
2022-08-17T16:29:08.736Z,97229.69
2022-08-17T16:31:37.770Z,97229.63
2022-08-17T16:34:16.985Z,97232.78
2022-08-17T16:36:55.946Z,97230.09
2022-08-17T16:39:26.346Z,97236.72
2022-08-17T16:41:53.536Z,97228.50
2022-08-17T16:44:21.932Z,97243.38
2022-08-17T16:46:50.388Z,97240.88
2022-08-17T16:49:35.357Z,97244.19
2022-08-17T16:52:10.559Z,97235.50
2022-08-17T16:54:40.691Z,97247.16
2022-08-17T16:57:07.811Z,97238.03
2022-08-17T16:59:39.618Z,97241.13
2022-08-17T17:02:11.349Z,97251.16
2022-08-17T17:04:50.152Z,97255.38
2022-08-17T17:07:33.957Z,97249.66
2022-08-17T17:10:13.059Z,97246.13
2022-08-17T17:13:01.933Z,97246.69
2022-08-17T17:15:36.562Z,97239.28
2022-08-17T17:18:06.900Z,97246.94
2022-08-17T17:20:47.739Z,97242.34
2022-08-17T17:23:54.603Z,97249.88
2022-08-17T17:26:48.496Z,97259.22
2022-08-17T17:29:21.129Z,97263.31
2022-08-17T17:32:09.566Z,97264.44
2022-08-17T17:34:38.242Z,97259.75
2022-08-17T17:37:19.616Z,97269.22
2022-08-17T17:39:51.740Z,97270.00
2022-08-17T17:42:28.967Z,97271.91
2022-08-17T17:45:16.145Z,97274.28
2022-08-17T17:47:44.777Z,97279.97
2022-08-17T17:50:12.137Z,97281.91
2022-08-17T17:52:58.682Z,97280.34
2022-08-17T17:55:47.843Z,97278.09
2022-08-17T17:58:28.490Z,97272.63
2022-08-17T18:01:07.433Z,97279.88
2022-08-17T18:03:59.278Z,97288.03
2022-08-17T18:06:52.110Z,97289.59
2022-08-17T18:09:29.505Z,97292.81
2022-08-17T18:12:12.382Z,97288.84
2022-08-17T18:15:00.300Z,97280.28
2022-08-17T18:17:29.759Z,97293.47
2022-08-17T18:19:57.184Z,97294.06
2022-08-17T18:22:24.947Z,97308.44
2022-08-17T18:24:56.165Z,97318.69
2022-08-17T18:27:26.183Z,97317.44
2022-08-17T18:29:55.976Z,97313.44
2022-08-17T18:32:31.235Z,97325.13
2022-08-17T18:35:08.686Z,97324.66
2022-08-17T18:37:38.427Z,97340.44
2022-08-17T18:40:17.871Z,97338.63
2022-08-17T18:42:48.737Z,97333.94
2022-08-17T18:45:38.705Z,97329.13
2022-08-17T18:48:17.291Z,97313.38
2022-08-17T18:50:44.738Z,97306.53
2022-08-17T18:53:20.861Z,97300.00
2022-08-17T18:56:13.827Z,97300.94
2022-08-17T18:58:41.000Z,97298.84
2022-08-17T19:01:19.562Z,97301.41
2022-08-17T19:03:46.816Z,97301.50
2022-08-17T19:06:25.451Z,97298.22
2022-08-17T19:08:52.922Z,97289.84
2022-08-17T19:11:39.614Z,97298.59
2022-08-17T19:14:16.831Z,97303.34
2022-08-17T19:17:01.959Z,97297.84
2022-08-17T19:19:43.100Z,97297.66
2022-08-17T19:22:29.057Z,97298.44
2022-08-17T19:25:17.508Z,97302.81
2022-08-17T19:27:57.433Z,97302.47
2022-08-17T19:30:25.919Z,97295.97
2022-08-17T19:32:53.284Z,97290.63
2022-08-17T19:35:24.652Z,97294.91
2022-08-17T19:38:12.703Z,97297.84
2022-08-17T19:40:53.944Z,97300.56
2022-08-17T19:43:39.861Z,97289.06
2022-08-17T19:46:41.282Z,97290.69
2022-08-17T19:49:41.265Z,97298.50
2022-08-17T19:52:27.659Z,97306.28
2022-08-17T19:55:26.550Z,97297.94
2022-08-17T19:58:05.062Z,97299.44
2022-08-17T20:00:39.417Z,97297.34
2022-08-17T20:03:19.271Z,97298.28
2022-08-17T20:06:09.238Z,97297.00
2022-08-17T20:09:05.940Z,97295.88
2022-08-17T20:11:38.376Z,97287.38
2022-08-17T20:14:14.123Z,97298.16
2022-08-17T20:16:41.565Z,97299.91
2022-08-17T20:19:19.892Z,97303.25
2022-08-17T20:21:59.794Z,97313.53
2022-08-17T20:24:42.514Z,97308.06
2022-08-17T20:27:09.944Z,97313.38
2022-08-17T20:30:33.231Z,97314.59
2022-08-17T20:33:02.735Z,97311.84
2022-08-17T20:35:38.933Z,97309.41
2022-08-17T20:38:11.033Z,97318.22
2022-08-17T20:41:01.208Z,97314.41
2022-08-17T20:43:33.930Z,97311.53
2022-08-17T20:46:23.978Z,97306.97
2022-08-17T20:48:55.465Z,97320.03
2022-08-17T20:51:39.623Z,97312.81
2022-08-17T20:54:07.039Z,97306.53
2022-08-17T20:56:43.240Z,97307.50
2022-08-17T20:59:31.665Z,97306.66
2022-08-17T21:02:17.622Z,97302.63
2022-08-17T21:05:00.298Z,97306.72
2022-08-17T21:07:43.682Z,97299.53
2022-08-17T21:10:23.994Z,97297.00
2022-08-17T21:13:13.870Z,97304.06
2022-08-17T21:15:48.617Z,97295.56
2022-08-17T21:18:43.676Z,97299.63
2022-08-17T21:21:48.614Z,97301.44
2022-08-17T21:24:35.466Z,97289.88
2022-08-17T21:27:21.113Z,97300.78
2022-08-17T21:30:16.333Z,97292.63
2022-08-17T21:33:17.045Z,97288.59
2022-08-17T21:35:58.768Z,97300.63
2022-08-17T21:39:08.956Z,97289.88
2022-08-17T21:41:47.720Z,97286.38
2022-08-17T21:44:35.081Z,97285.72
2022-08-17T21:47:24.667Z,97290.69
2022-08-17T21:49:53.983Z,97297.88
2022-08-17T21:52:23.877Z,97302.72
2022-08-17T21:54:54.794Z,97300.22
2022-08-17T21:57:27.697Z,97295.56
2022-08-17T22:00:00.288Z,97290.31
2022-08-17T22:02:36.222Z,97288.13
2022-08-17T22:05:11.789Z,97291.75
2022-08-17T22:07:46.473Z,97296.69
2022-08-17T22:10:37.943Z,97293.38
2022-08-17T22:13:16.955Z,97292.06
2022-08-17T22:15:47.374Z,97290.81
2022-08-17T22:18:20.181Z,97294.69
2022-08-17T22:20:50.801Z,97293.78
2022-08-17T22:23:56.978Z,97290.06
2022-08-17T22:26:31.224Z,97298.91
2022-08-17T22:28:59.062Z,97293.16
2022-08-17T22:31:28.754Z,97277.75
2022-08-17T22:33:59.971Z,97289.44
2022-08-17T22:36:31.142Z,97287.53
2022-08-17T22:39:09.734Z,97285.09
2022-08-17T22:41:40.699Z,97288.03
2022-08-17T22:44:29.615Z,97287.91
2022-08-17T22:47:18.809Z,97292.41
2022-08-17T22:49:57.500Z,97285.72
2022-08-17T22:52:32.114Z,97281.75
2022-08-17T22:55:32.416Z,97284.56
2022-08-17T22:58:18.968Z,97282.50
2022-08-17T23:00:48.976Z,97288.94
2022-08-17T23:03:23.769Z,97288.31
2022-08-17T23:06:11.287Z,97289.09
2022-08-17T23:08:54.954Z,97296.84
2022-08-17T23:11:36.969Z,97284.69
2022-08-17T23:14:15.922Z,97287.63
2022-08-17T23:16:42.889Z,97295.22
2022-08-17T23:19:11.887Z,97303.84
2022-08-17T23:21:39.607Z,97301.81
2022-08-17T23:24:08.960Z,97293.38
2022-08-17T23:26:38.159Z,97299.69
2022-08-17T23:29:06.542Z,97298.44
2022-08-17T23:31:37.387Z,97291.47
2022-08-17T23:34:07.750Z,97289.13
2022-08-17T23:36:36.703Z,97293.16
2022-08-17T23:39:05.367Z,97289.44
2022-08-17T23:41:38.761Z,97285.13
2022-08-17T23:44:06.943Z,97281.97
2022-08-17T23:46:34.793Z,97287.97
2022-08-17T23:49:01.939Z,97281.47
2022-08-17T23:51:34.752Z,97281.38
2022-08-17T23:54:12.665Z,97282.13
2022-08-17T23:56:48.571Z,97280.66
2022-08-17T23:59:17.975Z,97285.34
